sensor_id;sensor_type;location;lat;lon;timestamp;P1;durP1;ratioP1;P2;durP2;ratioP2
36457;SDS011;22480;50.546;12.292;2022-11-20T00:00:55;37.03;;;18.37;;
36457;SDS011;22480;50.546;12.292;2022-11-20T00:03:21;36.67;;;19.07;;
36457;SDS011;22480;50.546;12.292;2022-11-20T00:05:47;34.40;;;18.87;;
36457;SDS011;22480;50.546;12.292;2022-11-20T00:08:13;38.40;;;18.37;;
36457;SDS011;22480;50.546;12.292;2022-11-20T00:10:39;35.57;;;18.33;;
36457;SDS011;22480;50.546;12.292;2022-11-20T00:13:05;37.60;;;18.23;;
36457;SDS011;22480;50.546;12.292;2022-11-20T00:15:32;36.40;;;18.80;;
36457;SDS011;22480;50.546;12.292;2022-11-20T00:17:57;38.37;;;18.03;;
36457;SDS011;22480;50.546;12.292;2022-11-20T00:20:23;35.63;;;18.40;;
36457;SDS011;22480;50.546;12.292;2022-11-20T00:22:49;39.17;;;19.03;;
36457;SDS011;22480;50.546;12.292;2022-11-20T00:25:15;39.83;;;19.23;;
36457;SDS011;22480;50.546;12.292;2022-11-20T00:27:41;40.13;;;19.37;;
36457;SDS011;22480;50.546;12.292;2022-11-20T00:30:07;33.67;;;18.83;;
36457;SDS011;22480;50.546;12.292;2022-11-20T00:32:33;35.57;;;18.87;;
36457;SDS011;22480;50.546;12.292;2022-11-20T00:34:59;29.47;;;15.77;;
36457;SDS011;22480;50.546;12.292;2022-11-20T00:37:25;36.10;;;18.27;;
36457;SDS011;22480;50.546;12.292;2022-11-20T00:39:51;33.73;;;17.30;;
36457;SDS011;22480;50.546;12.292;2022-11-20T00:42:17;33.93;;;17.83;;
36457;SDS011;22480;50.546;12.292;2022-11-20T00:44:43;36.23;;;20.17;;
36457;SDS011;22480;50.546;12.292;2022-11-20T00:47:08;37.03;;;18.57;;
36457;SDS011;22480;50.546;12.292;2022-11-20T00:49:34;35.47;;;18.30;;
36457;SDS011;22480;50.546;12.292;2022-11-20T00:52:00;30.97;;;17.40;;
36457;SDS011;22480;50.546;12.292;2022-11-20T00:54:26;34.37;;;18.13;;
36457;SDS011;22480;50.546;12.292;2022-11-20T00:56:54;31.17;;;18.40;;
36457;SDS011;22480;50.546;12.292;2022-11-20T00:59:20;34.30;;;17.70;;
36457;SDS011;22480;50.546;12.292;2022-11-20T01:01:46;28.13;;;15.67;;
36457;SDS011;22480;50.546;12.292;2022-11-20T01:04:11;33.00;;;17.17;;
36457;SDS011;22480;50.546;12.292;2022-11-20T01:06:38;26.20;;;15.00;;
36457;SDS011;22480;50.546;12.292;2022-11-20T01:09:05;27.77;;;14.43;;
36457;SDS011;22480;50.546;12.292;2022-11-20T01:11:34;28.73;;;13.97;;
36457;SDS011;22480;50.546;12.292;2022-11-20T01:14:02;29.80;;;15.07;;
36457;SDS011;22480;50.546;12.292;2022-11-20T01:16:34;20.83;;;12.17;;
36457;SDS011;22480;50.546;12.292;2022-11-20T01:19:02;25.17;;;12.07;;
36457;SDS011;22480;50.546;12.292;2022-11-20T01:21:31;24.50;;;12.27;;
36457;SDS011;22480;50.546;12.292;2022-11-20T01:23:58;24.97;;;12.50;;
36457;SDS011;22480;50.546;12.292;2022-11-20T01:26:25;27.50;;;13.20;;
36457;SDS011;22480;50.546;12.292;2022-11-20T01:28:53;27.57;;;13.50;;
36457;SDS011;22480;50.546;12.292;2022-11-20T01:31:22;27.67;;;13.17;;
36457;SDS011;22480;50.546;12.292;2022-11-20T01:33:54;29.30;;;14.47;;
36457;SDS011;22480;50.546;12.292;2022-11-20T01:36:21;24.87;;;13.47;;
36457;SDS011;22480;50.546;12.292;2022-11-20T01:38:54;24.83;;;13.00;;
36457;SDS011;22480;50.546;12.292;2022-11-20T01:41:23;26.73;;;13.27;;
36457;SDS011;22480;50.546;12.292;2022-11-20T01:44:08;21.87;;;12.47;;
36457;SDS011;22480;50.546;12.292;2022-11-20T01:46:37;17.92;;;10.23;;
36457;SDS011;22480;50.546;12.292;2022-11-20T01:49:07;24.60;;;12.70;;
36457;SDS011;22480;50.546;12.292;2022-11-20T01:51:45;23.80;;;12.10;;
36457;SDS011;22480;50.546;12.292;2022-11-20T01:54:17;22.60;;;11.03;;
36457;SDS011;22480;50.546;12.292;2022-11-20T01:59:13;22.83;;;11.53;;
36457;SDS011;22480;50.546;12.292;2022-11-20T02:01:41;23.10;;;11.87;;
36457;SDS011;22480;50.546;12.292;2022-11-20T02:04:07;22.53;;;11.17;;
36457;SDS011;22480;50.546;12.292;2022-11-20T02:06:35;24.87;;;11.90;;
36457;SDS011;22480;50.546;12.292;2022-11-20T02:09:08;24.40;;;11.87;;
36457;SDS011;22480;50.546;12.292;2022-11-20T02:11:35;21.97;;;11.30;;
36457;SDS011;22480;50.546;12.292;2022-11-20T02:14:00;27.20;;;13.77;;
36457;SDS011;22480;50.546;12.292;2022-11-20T02:16:45;30.67;;;15.77;;
36457;SDS011;22480;50.546;12.292;2022-11-20T02:19:26;29.33;;;15.47;;
36457;SDS011;22480;50.546;12.292;2022-11-20T02:22:13;26.00;;;14.17;;
36457;SDS011;22480;50.546;12.292;2022-11-20T02:24:44;27.20;;;13.73;;
36457;SDS011;22480;50.546;12.292;2022-11-20T02:27:14;27.37;;;15.37;;
36457;SDS011;22480;50.546;12.292;2022-11-20T02:29:43;31.40;;;14.47;;
36457;SDS011;22480;50.546;12.292;2022-11-20T02:32:25;27.95;;;13.25;;
36457;SDS011;22480;50.546;12.292;2022-11-20T02:34:51;24.70;;;13.48;;
36457;SDS011;22480;50.546;12.292;2022-11-20T02:37:17;24.70;;;11.97;;
36457;SDS011;22480;50.546;12.292;2022-11-20T02:39:45;23.10;;;12.23;;
36457;SDS011;22480;50.546;12.292;2022-11-20T02:42:12;25.50;;;12.10;;
36457;SDS011;22480;50.546;12.292;2022-11-20T02:44:38;23.33;;;11.87;;
36457;SDS011;22480;50.546;12.292;2022-11-20T02:47:04;27.53;;;13.63;;
36457;SDS011;22480;50.546;12.292;2022-11-20T02:49:30;25.83;;;12.93;;
36457;SDS011;22480;50.546;12.292;2022-11-20T02:51:55;23.97;;;12.43;;
36457;SDS011;22480;50.546;12.292;2022-11-20T02:54:21;23.40;;;11.97;;
36457;SDS011;22480;50.546;12.292;2022-11-20T02:56:47;27.17;;;11.97;;
36457;SDS011;22480;50.546;12.292;2022-11-20T02:59:13;26.57;;;13.27;;
36457;SDS011;22480;50.546;12.292;2022-11-20T03:01:39;26.07;;;13.40;;
36457;SDS011;22480;50.546;12.292;2022-11-20T03:04:04;29.27;;;13.93;;
36457;SDS011;22480;50.546;12.292;2022-11-20T03:06:30;26.87;;;15.00;;
36457;SDS011;22480;50.546;12.292;2022-11-20T03:08:56;27.23;;;13.23;;
36457;SDS011;22480;50.546;12.292;2022-11-20T03:11:22;25.87;;;12.07;;
36457;SDS011;22480;50.546;12.292;2022-11-20T03:13:48;24.67;;;13.83;;
36457;SDS011;22480;50.546;12.292;2022-11-20T03:16:15;25.10;;;12.93;;
36457;SDS011;22480;50.546;12.292;2022-11-20T03:18:43;25.10;;;12.07;;
36457;SDS011;22480;50.546;12.292;2022-11-20T03:21:09;22.40;;;11.43;;
36457;SDS011;22480;50.546;12.292;2022-11-20T03:23:37;23.13;;;12.03;;
36457;SDS011;22480;50.546;12.292;2022-11-20T03:26:22;22.90;;;11.23;;
36457;SDS011;22480;50.546;12.292;2022-11-20T03:28:50;22.27;;;11.13;;
36457;SDS011;22480;50.546;12.292;2022-11-20T03:31:19;22.93;;;11.53;;
36457;SDS011;22480;50.546;12.292;2022-11-20T03:33:47;24.47;;;10.70;;
36457;SDS011;22480;50.546;12.292;2022-11-20T03:36:13;21.60;;;10.73;;
36457;SDS011;22480;50.546;12.292;2022-11-20T03:38:41;21.17;;;11.07;;
36457;SDS011;22480;50.546;12.292;2022-11-20T03:41:09;20.10;;;11.43;;
36457;SDS011;22480;50.546;12.292;2022-11-20T03:43:36;19.47;;;10.07;;
36457;SDS011;22480;50.546;12.292;2022-11-20T03:46:02;23.63;;;11.97;;
36457;SDS011;22480;50.546;12.292;2022-11-20T03:48:29;20.83;;;10.13;;
36457;SDS011;22480;50.546;12.292;2022-11-20T03:51:11;19.97;;;10.43;;
36457;SDS011;22480;50.546;12.292;2022-11-20T03:53:39;19.63;;;9.73;;
36457;SDS011;22480;50.546;12.292;2022-11-20T03:56:06;24.33;;;11.27;;
36457;SDS011;22480;50.546;12.292;2022-11-20T03:58:33;20.13;;;9.97;;
36457;SDS011;22480;50.546;12.292;2022-11-20T04:01:13;24.30;;;10.40;;
36457;SDS011;22480;50.546;12.292;2022-11-20T04:03:40;21.63;;;10.63;;
36457;SDS011;22480;50.546;12.292;2022-11-20T04:06:09;18.57;;;10.53;;
36457;SDS011;22480;50.546;12.292;2022-11-20T04:08:36;19.50;;;10.93;;
36457;SDS011;22480;50.546;12.292;2022-11-20T04:13:34;21.50;;;11.13;;
36457;SDS011;22480;50.546;12.292;2022-11-20T04:15:59;21.83;;;10.33;;
36457;SDS011;22480;50.546;12.292;2022-11-20T04:18:25;20.73;;;9.67;;
36457;SDS011;22480;50.546;12.292;2022-11-20T04:20:51;21.40;;;11.30;;
36457;SDS011;22480;50.546;12.292;2022-11-20T04:23:17;19.27;;;9.87;;
36457;SDS011;22480;50.546;12.292;2022-11-20T04:25:42;22.47;;;10.77;;
36457;SDS011;22480;50.546;12.292;2022-11-20T04:28:09;20.50;;;9.90;;
36457;SDS011;22480;50.546;12.292;2022-11-20T04:30:34;21.77;;;10.23;;
36457;SDS011;22480;50.546;12.292;2022-11-20T04:33:00;17.17;;;9.40;;
36457;SDS011;22480;50.546;12.292;2022-11-20T04:35:26;20.73;;;10.53;;
36457;SDS011;22480;50.546;12.292;2022-11-20T04:37:52;19.70;;;9.97;;
36457;SDS011;22480;50.546;12.292;2022-11-20T04:40:17;18.87;;;10.27;;
36457;SDS011;22480;50.546;12.292;2022-11-20T04:42:43;22.20;;;10.80;;
36457;SDS011;22480;50.546;12.292;2022-11-20T04:45:09;21.47;;;10.63;;
36457;SDS011;22480;50.546;12.292;2022-11-20T04:47:34;21.90;;;11.10;;
36457;SDS011;22480;50.546;12.292;2022-11-20T04:50:00;19.50;;;11.10;;
36457;SDS011;22480;50.546;12.292;2022-11-20T04:52:26;19.77;;;11.03;;
36457;SDS011;22480;50.546;12.292;2022-11-20T04:54:52;21.43;;;11.10;;
36457;SDS011;22480;50.546;12.292;2022-11-20T04:57:18;21.20;;;11.23;;
36457;SDS011;22480;50.546;12.292;2022-11-20T04:59:44;21.87;;;10.20;;
36457;SDS011;22480;50.546;12.292;2022-11-20T05:02:10;22.13;;;12.20;;
36457;SDS011;22480;50.546;12.292;2022-11-20T05:04:36;22.93;;;11.00;;
36457;SDS011;22480;50.546;12.292;2022-11-20T05:07:02;23.23;;;11.77;;
36457;SDS011;22480;50.546;12.292;2022-11-20T05:09:27;22.73;;;11.53;;
36457;SDS011;22480;50.546;12.292;2022-11-20T05:11:53;24.47;;;10.87;;
36457;SDS011;22480;50.546;12.292;2022-11-20T05:14:19;20.33;;;10.33;;
36457;SDS011;22480;50.546;12.292;2022-11-20T05:16:44;22.30;;;11.17;;
36457;SDS011;22480;50.546;12.292;2022-11-20T05:19:10;22.60;;;10.30;;
36457;SDS011;22480;50.546;12.292;2022-11-20T05:21:36;19.70;;;10.47;;
36457;SDS011;22480;50.546;12.292;2022-11-20T05:24:02;22.70;;;10.63;;
36457;SDS011;22480;50.546;12.292;2022-11-20T05:26:28;26.13;;;11.60;;
36457;SDS011;22480;50.546;12.292;2022-11-20T05:28:53;24.77;;;12.00;;
36457;SDS011;22480;50.546;12.292;2022-11-20T05:31:20;21.40;;;10.87;;
36457;SDS011;22480;50.546;12.292;2022-11-20T05:33:47;22.13;;;10.83;;
36457;SDS011;22480;50.546;12.292;2022-11-20T05:36:13;22.13;;;11.57;;
36457;SDS011;22480;50.546;12.292;2022-11-20T05:38:40;24.70;;;12.53;;
36457;SDS011;22480;50.546;12.292;2022-11-20T05:41:07;23.17;;;11.17;;
36457;SDS011;22480;50.546;12.292;2022-11-20T05:43:34;24.27;;;12.00;;
36457;SDS011;22480;50.546;12.292;2022-11-20T05:46:02;24.27;;;11.53;;
36457;SDS011;22480;50.546;12.292;2022-11-20T05:48:28;23.17;;;10.90;;
36457;SDS011;22480;50.546;12.292;2022-11-20T05:50:56;23.57;;;11.50;;
36457;SDS011;22480;50.546;12.292;2022-11-20T05:53:23;26.00;;;11.20;;
36457;SDS011;22480;50.546;12.292;2022-11-20T05:56:02;26.47;;;12.30;;
36457;SDS011;22480;50.546;12.292;2022-11-20T05:58:30;24.80;;;12.07;;
36457;SDS011;22480;50.546;12.292;2022-11-20T06:01:07;29.03;;;13.17;;
36457;SDS011;22480;50.546;12.292;2022-11-20T06:03:33;23.23;;;11.80;;
36457;SDS011;22480;50.546;12.292;2022-11-20T06:06:00;23.57;;;11.30;;
36457;SDS011;22480;50.546;12.292;2022-11-20T06:08:26;33.73;;;15.37;;
36457;SDS011;22480;50.546;12.292;2022-11-20T06:10:52;34.90;;;16.40;;
36457;SDS011;22480;50.546;12.292;2022-11-20T06:13:18;38.07;;;17.50;;
36457;SDS011;22480;50.546;12.292;2022-11-20T06:15:51;36.00;;;17.27;;
36457;SDS011;22480;50.546;12.292;2022-11-20T06:18:17;36.63;;;19.20;;
36457;SDS011;22480;50.546;12.292;2022-11-20T06:20:44;27.80;;;15.23;;
36457;SDS011;22480;50.546;12.292;2022-11-20T06:23:10;26.50;;;13.53;;
36457;SDS011;22480;50.546;12.292;2022-11-20T06:25:39;25.87;;;14.77;;
36457;SDS011;22480;50.546;12.292;2022-11-20T06:28:06;29.45;;;14.50;;
36457;SDS011;22480;50.546;12.292;2022-11-20T06:30:32;22.63;;;11.17;;
36457;SDS011;22480;50.546;12.292;2022-11-20T06:32:58;23.13;;;12.33;;
36457;SDS011;22480;50.546;12.292;2022-11-20T06:35:24;23.30;;;11.60;;
36457;SDS011;22480;50.546;12.292;2022-11-20T06:37:49;23.77;;;11.40;;
36457;SDS011;22480;50.546;12.292;2022-11-20T06:40:15;24.80;;;13.37;;
36457;SDS011;22480;50.546;12.292;2022-11-20T06:42:41;24.20;;;12.13;;
36457;SDS011;22480;50.546;12.292;2022-11-20T06:45:07;22.53;;;11.40;;
36457;SDS011;22480;50.546;12.292;2022-11-20T06:47:33;25.93;;;12.03;;
36457;SDS011;22480;50.546;12.292;2022-11-20T06:49:59;24.07;;;10.90;;
36457;SDS011;22480;50.546;12.292;2022-11-20T06:52:25;21.60;;;11.30;;
36457;SDS011;22480;50.546;12.292;2022-11-20T06:54:51;23.07;;;12.80;;
36457;SDS011;22480;50.546;12.292;2022-11-20T06:57:16;24.50;;;12.57;;
36457;SDS011;22480;50.546;12.292;2022-11-20T06:59:42;23.47;;;12.70;;
36457;SDS011;22480;50.546;12.292;2022-11-20T07:02:11;27.80;;;14.03;;
36457;SDS011;22480;50.546;12.292;2022-11-20T07:04:37;25.27;;;13.23;;
36457;SDS011;22480;50.546;12.292;2022-11-20T07:07:03;26.60;;;12.87;;
36457;SDS011;22480;50.546;12.292;2022-11-20T07:09:30;24.83;;;12.67;;
36457;SDS011;22480;50.546;12.292;2022-11-20T07:11:55;24.07;;;12.60;;
36457;SDS011;22480;50.546;12.292;2022-11-20T07:14:21;24.90;;;12.17;;
36457;SDS011;22480;50.546;12.292;2022-11-20T07:16:47;23.23;;;11.50;;
36457;SDS011;22480;50.546;12.292;2022-11-20T07:19:12;23.23;;;12.03;;
36457;SDS011;22480;50.546;12.292;2022-11-20T07:21:38;22.57;;;11.60;;
36457;SDS011;22480;50.546;12.292;2022-11-20T07:24:04;23.83;;;11.50;;
36457;SDS011;22480;50.546;12.292;2022-11-20T07:26:30;20.47;;;10.83;;
36457;SDS011;22480;50.546;12.292;2022-11-20T07:28:55;23.43;;;12.03;;
36457;SDS011;22480;50.546;12.292;2022-11-20T07:31:21;20.43;;;11.17;;
36457;SDS011;22480;50.546;12.292;2022-11-20T07:33:47;21.70;;;11.17;;
36457;SDS011;22480;50.546;12.292;2022-11-20T07:36:13;20.63;;;10.60;;
36457;SDS011;22480;50.546;12.292;2022-11-20T07:38:39;20.13;;;11.20;;
36457;SDS011;22480;50.546;12.292;2022-11-20T07:41:04;21.23;;;11.20;;
36457;SDS011;22480;50.546;12.292;2022-11-20T07:43:30;23.43;;;11.37;;
36457;SDS011;22480;50.546;12.292;2022-11-20T07:45:56;22.70;;;11.77;;
36457;SDS011;22480;50.546;12.292;2022-11-20T07:48:23;20.43;;;9.77;;
36457;SDS011;22480;50.546;12.292;2022-11-20T07:50:52;20.93;;;11.73;;
36457;SDS011;22480;50.546;12.292;2022-11-20T07:53:19;21.17;;;11.68;;
36457;SDS011;22480;50.546;12.292;2022-11-20T07:55:47;22.30;;;11.83;;
36457;SDS011;22480;50.546;12.292;2022-11-20T07:58:13;22.17;;;12.07;;
36457;SDS011;22480;50.546;12.292;2022-11-20T08:00:39;23.27;;;11.17;;
36457;SDS011;22480;50.546;12.292;2022-11-20T08:03:05;22.17;;;11.93;;
36457;SDS011;22480;50.546;12.292;2022-11-20T08:05:32;20.57;;;12.13;;
36457;SDS011;22480;50.546;12.292;2022-11-20T08:07:58;21.63;;;11.83;;
36457;SDS011;22480;50.546;12.292;2022-11-20T08:10:24;21.73;;;12.00;;
36457;SDS011;22480;50.546;12.292;2022-11-20T08:12:50;22.33;;;11.60;;
36457;SDS011;22480;50.546;12.292;2022-11-20T08:15:36;21.47;;;11.87;;
36457;SDS011;22480;50.546;12.292;2022-11-20T08:18:06;22.27;;;12.43;;
36457;SDS011;22480;50.546;12.292;2022-11-20T08:20:33;24.57;;;13.33;;
36457;SDS011;22480;50.546;12.292;2022-11-20T08:23:00;21.23;;;11.20;;
36457;SDS011;22480;50.546;12.292;2022-11-20T08:25:28;26.20;;;13.17;;
36457;SDS011;22480;50.546;12.292;2022-11-20T08:27:56;28.50;;;15.57;;
36457;SDS011;22480;50.546;12.292;2022-11-20T08:30:26;28.97;;;14.40;;
36457;SDS011;22480;50.546;12.292;2022-11-20T08:32:53;22.27;;;11.93;;
36457;SDS011;22480;50.546;12.292;2022-11-20T08:35:19;25.30;;;13.47;;
36457;SDS011;22480;50.546;12.292;2022-11-20T08:37:46;22.70;;;12.13;;
36457;SDS011;22480;50.546;12.292;2022-11-20T08:40:13;22.93;;;11.70;;
36457;SDS011;22480;50.546;12.292;2022-11-20T08:42:48;25.03;;;13.63;;
36457;SDS011;22480;50.546;12.292;2022-11-20T08:45:15;25.63;;;14.33;;
36457;SDS011;22480;50.546;12.292;2022-11-20T08:47:42;31.70;;;15.67;;
36457;SDS011;22480;50.546;12.292;2022-11-20T08:50:09;28.43;;;16.00;;
36457;SDS011;22480;50.546;12.292;2022-11-20T08:52:36;24.77;;;14.10;;
36457;SDS011;22480;50.546;12.292;2022-11-20T08:55:02;31.67;;;16.83;;
36457;SDS011;22480;50.546;12.292;2022-11-20T08:57:31;30.03;;;16.43;;
36457;SDS011;22480;50.546;12.292;2022-11-20T09:00:01;24.90;;;13.67;;
36457;SDS011;22480;50.546;12.292;2022-11-20T09:02:28;30.13;;;14.27;;
36457;SDS011;22480;50.546;12.292;2022-11-20T09:04:54;27.23;;;13.07;;
36457;SDS011;22480;50.546;12.292;2022-11-20T09:07:20;31.40;;;14.43;;
36457;SDS011;22480;50.546;12.292;2022-11-20T09:09:45;32.97;;;18.00;;
36457;SDS011;22480;50.546;12.292;2022-11-20T09:12:11;32.53;;;17.00;;
36457;SDS011;22480;50.546;12.292;2022-11-20T09:14:37;30.33;;;17.07;;
36457;SDS011;22480;50.546;12.292;2022-11-20T09:17:03;27.60;;;15.53;;
36457;SDS011;22480;50.546;12.292;2022-11-20T09:19:28;32.37;;;17.87;;
36457;SDS011;22480;50.546;12.292;2022-11-20T09:21:54;34.93;;;18.13;;
36457;SDS011;22480;50.546;12.292;2022-11-20T09:24:20;28.00;;;15.20;;
36457;SDS011;22480;50.546;12.292;2022-11-20T09:26:46;29.87;;;15.17;;
36457;SDS011;22480;50.546;12.292;2022-11-20T09:29:11;36.37;;;19.07;;
36457;SDS011;22480;50.546;12.292;2022-11-20T09:31:37;27.07;;;14.03;;
36457;SDS011;22480;50.546;12.292;2022-11-20T09:34:03;34.50;;;17.77;;
36457;SDS011;22480;50.546;12.292;2022-11-20T09:36:29;28.43;;;13.53;;
36457;SDS011;22480;50.546;12.292;2022-11-20T09:38:55;28.97;;;14.33;;
36457;SDS011;22480;50.546;12.292;2022-11-20T09:46:53;28.13;;;13.90;;
36457;SDS011;22480;50.546;12.292;2022-11-20T09:52:15;33.10;;;17.37;;
36457;SDS011;22480;50.546;12.292;2022-11-20T09:55:04;30.97;;;16.83;;
36457;SDS011;22480;50.546;12.292;2022-11-20T09:57:36;28.43;;;15.43;;
36457;SDS011;22480;50.546;12.292;2022-11-20T10:00:05;31.73;;;18.20;;
36457;SDS011;22480;50.546;12.292;2022-11-20T10:02:46;33.87;;;17.40;;
36457;SDS011;22480;50.546;12.292;2022-11-20T10:05:25;31.50;;;15.63;;
36457;SDS011;22480;50.546;12.292;2022-11-20T10:10:35;34.10;;;17.60;;
36457;SDS011;22480;50.546;12.292;2022-11-20T10:16:07;30.40;;;17.03;;
36457;SDS011;22480;50.546;12.292;2022-11-20T10:19:07;31.47;;;16.90;;
36457;SDS011;22480;50.546;12.292;2022-11-20T10:30:23;30.47;;;16.33;;
36457;SDS011;22480;50.546;12.292;2022-11-20T10:32:47;29.90;;;15.13;;
36457;SDS011;22480;50.546;12.292;2022-11-20T10:35:37;32.03;;;16.53;;
36457;SDS011;22480;50.546;12.292;2022-11-20T10:38:33;32.77;;;16.83;;
36457;SDS011;22480;50.546;12.292;2022-11-20T10:41:02;31.83;;;17.07;;
36457;SDS011;22480;50.546;12.292;2022-11-20T10:43:47;34.00;;;17.70;;
36457;SDS011;22480;50.546;12.292;2022-11-20T10:46:18;33.45;;;17.60;;
36457;SDS011;22480;50.546;12.292;2022-11-20T10:48:47;31.92;;;17.05;;
36457;SDS011;22480;50.546;12.292;2022-11-20T11:01:51;29.00;;;17.23;;
36457;SDS011;22480;50.546;12.292;2022-11-20T11:04:28;29.50;;;18.73;;
36457;SDS011;22480;50.546;12.292;2022-11-20T11:07:06;30.67;;;16.93;;
36457;SDS011;22480;50.546;12.292;2022-11-20T11:09:35;34.10;;;19.83;;
36457;SDS011;22480;50.546;12.292;2022-11-20T11:12:08;31.33;;;17.83;;
36457;SDS011;22480;50.546;12.292;2022-11-20T11:14:42;33.17;;;18.85;;
36457;SDS011;22480;50.546;12.292;2022-11-20T11:17:22;32.13;;;18.03;;
36457;SDS011;22480;50.546;12.292;2022-11-20T11:19:58;36.42;;;20.38;;
36457;SDS011;22480;50.546;12.292;2022-11-20T11:25:23;39.37;;;21.07;;
36457;SDS011;22480;50.546;12.292;2022-11-20T11:27:55;33.07;;;19.43;;
36457;SDS011;22480;50.546;12.292;2022-11-20T11:30:26;32.00;;;18.90;;
36457;SDS011;22480;50.546;12.292;2022-11-20T11:33:05;29.97;;;17.53;;
36457;SDS011;22480;50.546;12.292;2022-11-20T11:35:38;35.33;;;21.35;;
36457;SDS011;22480;50.546;12.292;2022-11-20T11:38:12;34.60;;;19.77;;
36457;SDS011;22480;50.546;12.292;2022-11-20T11:40:44;32.83;;;18.10;;
36457;SDS011;22480;50.546;12.292;2022-11-20T11:43:18;33.20;;;17.83;;
36457;SDS011;22480;50.546;12.292;2022-11-20T11:46:23;38.10;;;22.80;;
36457;SDS011;22480;50.546;12.292;2022-11-20T11:48:59;34.60;;;20.63;;
36457;SDS011;22480;50.546;12.292;2022-11-20T11:51:37;27.83;;;17.07;;
36457;SDS011;22480;50.546;12.292;2022-11-20T11:56:53;28.23;;;16.87;;
36457;SDS011;22480;50.546;12.292;2022-11-20T11:59:38;32.87;;;20.30;;
36457;SDS011;22480;50.546;12.292;2022-11-20T12:02:16;31.60;;;19.20;;
36457;SDS011;22480;50.546;12.292;2022-11-20T12:04:57;28.70;;;17.27;;
36457;SDS011;22480;50.546;12.292;2022-11-20T12:07:39;28.00;;;15.93;;
36457;SDS011;22480;50.546;12.292;2022-11-20T12:10:19;24.38;;;14.00;;
36457;SDS011;22480;50.546;12.292;2022-11-20T12:13:01;23.55;;;14.63;;
36457;SDS011;22480;50.546;12.292;2022-11-20T12:15:39;25.13;;;14.10;;
36457;SDS011;22480;50.546;12.292;2022-11-20T12:18:11;26.67;;;14.50;;
36457;SDS011;22480;50.546;12.292;2022-11-20T12:20:42;26.80;;;15.07;;
36457;SDS011;22480;50.546;12.292;2022-11-20T12:25:51;28.50;;;16.60;;
36457;SDS011;22480;50.546;12.292;2022-11-20T12:28:23;24.73;;;14.40;;
36457;SDS011;22480;50.546;12.292;2022-11-20T12:30:58;22.83;;;14.50;;
36457;SDS011;22480;50.546;12.292;2022-11-20T12:47:39;24.00;;;13.83;;
36457;SDS011;22480;50.546;12.292;2022-11-20T12:50:28;34.20;;;21.73;;
36457;SDS011;22480;50.546;12.292;2022-11-20T12:53:04;23.42;;;15.07;;
36457;SDS011;22480;50.546;12.292;2022-11-20T13:04:08;21.10;;;13.57;;
36457;SDS011;22480;50.546;12.292;2022-11-20T13:06:38;26.17;;;17.17;;
36457;SDS011;22480;50.546;12.292;2022-11-20T13:09:08;19.00;;;12.68;;
36457;SDS011;22480;50.546;12.292;2022-11-20T13:11:47;21.20;;;12.75;;
36457;SDS011;22480;50.546;12.292;2022-11-20T13:17:30;26.00;;;13.70;;
36457;SDS011;22480;50.546;12.292;2022-11-20T13:20:05;30.53;;;13.83;;
36457;SDS011;22480;50.546;12.292;2022-11-20T13:28:00;21.48;;;12.63;;
36457;SDS011;22480;50.546;12.292;2022-11-20T13:30:29;19.45;;;12.48;;
36457;SDS011;22480;50.546;12.292;2022-11-20T13:32:57;23.25;;;16.40;;
36457;SDS011;22480;50.546;12.292;2022-11-20T13:35:34;17.08;;;10.65;;
36457;SDS011;22480;50.546;12.292;2022-11-20T13:40:39;30.00;;;20.05;;
36457;SDS011;22480;50.546;12.292;2022-11-20T13:43:51;29.23;;;17.33;;
36457;SDS011;22480;50.546;12.292;2022-11-20T13:46:17;16.83;;;11.23;;
36457;SDS011;22480;50.546;12.292;2022-11-20T13:48:49;12.27;;;8.40;;
36457;SDS011;22480;50.546;12.292;2022-11-20T14:00:09;14.47;;;9.23;;
36457;SDS011;22480;50.546;12.292;2022-11-20T14:02:43;13.90;;;9.07;;
36457;SDS011;22480;50.546;12.292;2022-11-20T14:05:16;14.20;;;9.32;;
36457;SDS011;22480;50.546;12.292;2022-11-20T14:07:47;16.77;;;10.30;;
36457;SDS011;22480;50.546;12.292;2022-11-20T14:10:20;13.67;;;7.80;;
36457;SDS011;22480;50.546;12.292;2022-11-20T14:12:47;14.47;;;9.67;;
36457;SDS011;22480;50.546;12.292;2022-11-20T14:15:27;14.37;;;9.57;;
36457;SDS011;22480;50.546;12.292;2022-11-20T14:17:55;17.40;;;11.52;;
36457;SDS011;22480;50.546;12.292;2022-11-20T14:20:22;14.63;;;9.37;;
36457;SDS011;22480;50.546;12.292;2022-11-20T14:22:52;14.32;;;10.15;;
36457;SDS011;22480;50.546;12.292;2022-11-20T14:25:19;14.97;;;10.10;;
36457;SDS011;22480;50.546;12.292;2022-11-20T14:27:55;15.97;;;11.10;;
36457;SDS011;22480;50.546;12.292;2022-11-20T14:30:27;13.73;;;9.67;;
36457;SDS011;22480;50.546;12.292;2022-11-20T14:33:09;14.40;;;10.10;;
36457;SDS011;22480;50.546;12.292;2022-11-20T14:35:37;14.43;;;9.63;;
36457;SDS011;22480;50.546;12.292;2022-11-20T14:38:11;14.43;;;9.40;;
36457;SDS011;22480;50.546;12.292;2022-11-20T14:40:38;14.53;;;9.57;;
36457;SDS011;22480;50.546;12.292;2022-11-20T14:43:26;14.87;;;10.00;;
36457;SDS011;22480;50.546;12.292;2022-11-20T14:45:54;19.37;;;11.37;;
36457;SDS011;22480;50.546;12.292;2022-11-20T14:51:28;14.40;;;9.23;;
36457;SDS011;22480;50.546;12.292;2022-11-20T14:54:18;15.30;;;9.83;;
36457;SDS011;22480;50.546;12.292;2022-11-20T14:56:58;13.77;;;9.33;;
36457;SDS011;22480;50.546;12.292;2022-11-20T14:59:27;13.67;;;9.53;;
36457;SDS011;22480;50.546;12.292;2022-11-20T15:01:58;13.97;;;8.67;;
36457;SDS011;22480;50.546;12.292;2022-11-20T15:04:30;14.23;;;8.70;;
36457;SDS011;22480;50.546;12.292;2022-11-20T15:06:57;19.13;;;11.40;;
36457;SDS011;22480;50.546;12.292;2022-11-20T15:09:24;16.33;;;10.17;;
36457;SDS011;22480;50.546;12.292;2022-11-20T15:11:57;19.40;;;11.03;;
36457;SDS011;22480;50.546;12.292;2022-11-20T15:14:25;20.53;;;13.03;;
36457;SDS011;22480;50.546;12.292;2022-11-20T15:16:52;16.00;;;10.53;;
36457;SDS011;22480;50.546;12.292;2022-11-20T15:19:19;15.40;;;10.20;;
36457;SDS011;22480;50.546;12.292;2022-11-20T15:21:47;19.10;;;12.03;;
36457;SDS011;22480;50.546;12.292;2022-11-20T15:24:13;18.50;;;11.60;;
36457;SDS011;22480;50.546;12.292;2022-11-20T15:26:39;18.23;;;10.97;;
36457;SDS011;22480;50.546;12.292;2022-11-20T15:29:07;16.97;;;11.57;;
36457;SDS011;22480;50.546;12.292;2022-11-20T15:31:36;15.93;;;9.27;;
36457;SDS011;22480;50.546;12.292;2022-11-20T15:34:02;17.97;;;10.93;;
36457;SDS011;22480;50.546;12.292;2022-11-20T15:36:31;17.17;;;11.30;;
36457;SDS011;22480;50.546;12.292;2022-11-20T15:38:57;17.47;;;11.50;;
36457;SDS011;22480;50.546;12.292;2022-11-20T15:41:23;18.40;;;11.70;;
36457;SDS011;22480;50.546;12.292;2022-11-20T15:43:48;19.63;;;11.13;;
36457;SDS011;22480;50.546;12.292;2022-11-20T15:46:15;16.60;;;10.90;;
36457;SDS011;22480;50.546;12.292;2022-11-20T15:48:44;21.83;;;12.18;;
36457;SDS011;22480;50.546;12.292;2022-11-20T15:53:51;25.37;;;14.40;;
36457;SDS011;22480;50.546;12.292;2022-11-20T15:56:16;35.23;;;19.03;;
36457;SDS011;22480;50.546;12.292;2022-11-20T15:58:42;21.17;;;12.73;;